createdAt,value
2017-01-07T00:00:56.116Z,40.7
2017-01-07T00:02:05.216Z,40.7
2017-01-07T00:03:13.929Z,40.79
2017-01-07T00:04:23.072Z,40.89
2017-01-07T00:05:32.193Z,40.89
2017-01-07T00:06:41.295Z,40.6
2017-01-07T00:07:50.407Z,40.79
2017-01-07T00:08:59.110Z,40.99
2017-01-07T00:10:08.610Z,40.99
2017-01-07T00:11:17.688Z,41.08
2017-01-07T00:12:27.156Z,41.08
2017-01-07T00:13:36.241Z,40.99
2017-01-07T00:14:45.727Z,40.99
2017-01-07T00:15:54.425Z,41.08
2017-01-07T00:17:03.146Z,40.99
2017-01-07T00:18:11.881Z,41.37
2017-01-07T00:19:20.973Z,41.75
2017-01-07T00:20:29.693Z,41.37
2017-01-07T00:21:38.782Z,41.66
2017-01-07T00:22:47.866Z,41.46
2017-01-07T00:23:56.950Z,41.56
2017-01-07T00:25:06.057Z,41.46
2017-01-07T00:26:14.790Z,41.56
2017-01-07T00:27:24.298Z,41.46
2017-01-07T00:28:33.421Z,41.75
2017-01-07T00:29:42.930Z,41.75
2017-01-07T00:30:52.041Z,41.56
2017-01-07T00:32:01.909Z,41.75
2017-01-07T00:33:11.779Z,41.66
2017-01-07T00:34:21.278Z,41.56
2017-01-07T00:35:30.356Z,41.75
2017-01-07T00:36:39.444Z,41.75
2017-01-07T00:37:48.144Z,41.75
2017-01-07T00:38:56.862Z,41.56
2017-01-07T00:40:06.348Z,41.85
2017-01-07T00:41:15.819Z,41.75
2017-01-07T00:42:24.530Z,41.75
2017-01-07T00:43:33.223Z,41.94
2017-01-07T00:44:43.076Z,41.85
2017-01-07T00:45:51.772Z,41.75
2017-01-07T00:47:00.875Z,41.75
2017-01-07T00:48:09.968Z,41.94
2017-01-07T00:49:19.044Z,41.94
2017-01-07T00:50:28.146Z,42.04
2017-01-07T00:51:36.838Z,41.94
2017-01-07T00:52:46.332Z,42.23
2017-01-07T00:53:55.039Z,42.13
2017-01-07T00:55:04.178Z,42.13
2017-01-07T00:56:13.269Z,42.13
2017-01-07T00:57:22.391Z,41.94
2017-01-07T00:58:31.500Z,41.94
2017-01-07T00:59:40.594Z,41.75
2017-01-07T01:00:49.667Z,42.13
2017-01-07T01:01:58.770Z,42.23
2017-01-07T01:03:08.397Z,42.04
2017-01-07T01:04:17.866Z,42.13
2017-01-07T01:05:27.351Z,42.33
2017-01-07T01:06:36.856Z,42.23
2017-01-07T01:07:45.953Z,42.13
2017-01-07T01:08:55.044Z,42.33
2017-01-07T01:10:03.763Z,42.04
2017-01-07T01:11:13.658Z,42.23
2017-01-07T01:12:22.726Z,42.52
2017-01-07T01:13:31.812Z,42.43
2017-01-07T01:14:40.897Z,42.61
2017-01-07T01:15:50.381Z,42.61
2017-01-07T01:16:59.084Z,42.61
2017-01-07T01:18:07.868Z,42.71
2017-01-07T01:19:17.355Z,42.52
2017-01-07T01:20:26.080Z,42.61
2017-01-07T01:21:35.172Z,42.71
2017-01-07T01:22:43.854Z,42.9
2017-01-07T01:23:52.936Z,42.9
2017-01-07T01:25:02.031Z,43
2017-01-07T01:26:11.895Z,43
2017-01-07T01:27:20.589Z,42.81
2017-01-07T01:28:30.107Z,42.52
2017-01-07T01:29:40.011Z,42.71
2017-01-07T01:30:48.730Z,42.61
2017-01-07T01:31:57.444Z,42.81
2017-01-07T01:33:06.151Z,42.88
2017-01-07T01:34:15.263Z,42.81
2017-01-07T01:35:24.389Z,42.81
2017-01-07T01:36:33.499Z,42.6
2017-01-07T01:37:42.218Z,43.07
2017-01-07T01:38:50.910Z,43.07
2017-01-07T01:39:59.618Z,42.71
2017-01-07T01:41:08.295Z,42.9
2017-01-07T01:42:17.445Z,42.69
2017-01-07T01:43:26.154Z,43.17
2017-01-07T01:44:35.269Z,43.55
2017-01-07T01:45:44.803Z,43.29
2017-01-07T01:46:53.512Z,43.57
2017-01-07T01:48:03.383Z,43.55
2017-01-07T01:49:12.089Z,43.57
2017-01-07T01:50:20.812Z,43.48
2017-01-07T01:51:29.900Z,43.38
2017-01-07T01:52:40.138Z,43.48
2017-01-07T01:53:49.659Z,43.48
2017-01-07T01:54:58.393Z,43.38
2017-01-07T01:56:07.873Z,43.36
2017-01-07T01:57:16.955Z,43.07
2017-01-07T01:58:26.045Z,43.1
2017-01-07T01:59:35.134Z,43.36
2017-01-07T02:00:44.650Z,43.27
2017-01-07T02:01:54.513Z,43.67
2017-01-07T02:03:03.215Z,43.84
2017-01-07T02:04:11.903Z,43.77
2017-01-07T02:05:21.782Z,43.65
2017-01-07T02:06:31.251Z,43.65
2017-01-07T02:07:39.954Z,43.55
2017-01-07T02:08:49.050Z,43.46
2017-01-07T02:09:58.158Z,43.65
2017-01-07T02:11:06.869Z,43.65
2017-01-07T02:12:15.956Z,43.55
2017-01-07T02:13:25.432Z,44.13
2017-01-07T02:14:34.913Z,43.94
2017-01-07T02:15:43.617Z,43.94
2017-01-07T02:16:52.319Z,43.94
2017-01-07T02:18:01.015Z,43.94
2017-01-07T02:19:10.900Z,43.84
2017-01-07T02:20:20.417Z,43.84
2017-01-07T02:21:29.118Z,43.74
2017-01-07T02:22:37.815Z,44.23
2017-01-07T02:23:47.310Z,44.03
2017-01-07T02:24:56.418Z,44.13
2017-01-07T02:26:05.135Z,44.13
2017-01-07T02:27:14.600Z,43.94
2017-01-07T02:28:24.469Z,43.74
2017-01-07T02:29:33.551Z,43.84
2017-01-07T02:30:43.055Z,44.03
2017-01-07T02:31:51.796Z,43.84
2017-01-07T02:33:00.881Z,43.94
2017-01-07T02:34:10.744Z,44.13
2017-01-07T02:35:20.210Z,44.32
2017-01-07T02:36:29.375Z,44.13
2017-01-07T02:37:38.165Z,44.03
2017-01-07T02:38:47.253Z,44.03
2017-01-07T02:39:55.977Z,44.03
2017-01-07T02:41:04.686Z,43.94
2017-01-07T02:42:13.391Z,43.94
2017-01-07T02:43:22.181Z,44.32
2017-01-07T02:44:31.334Z,44.51
2017-01-07T02:45:41.269Z,44.61
2017-01-07T02:46:50.364Z,44.8
2017-01-07T02:47:59.451Z,44.42
2017-01-07T02:49:08.928Z,44.51
2017-01-07T02:50:17.998Z,44.42
2017-01-07T02:51:27.087Z,44.42
2017-01-07T02:52:36.578Z,44.42
2017-01-07T02:53:45.665Z,44.51
2017-01-07T02:54:54.359Z,44.32
2017-01-07T02:56:03.460Z,44.42
2017-01-07T02:57:12.203Z,44.42
2017-01-07T02:58:21.397Z,44.23
2017-01-07T02:59:30.142Z,44.51
2017-01-07T03:00:39.274Z,44.23
2017-01-07T03:01:47.982Z,44.51
2017-01-07T03:02:57.119Z,44.61
2017-01-07T03:04:05.841Z,44.8
2017-01-07T03:05:14.915Z,44.8
2017-01-07T03:06:24.390Z,44.61
2017-01-07T03:07:33.534Z,44.51
2017-01-07T03:08:43.019Z,44.7
2017-01-07T03:09:52.110Z,44.7
2017-01-07T03:11:01.227Z,44.61
2017-01-07T03:12:10.404Z,44.42
2017-01-07T03:13:19.887Z,44.7
2017-01-07T03:14:28.616Z,44.51
2017-01-07T03:15:37.308Z,44.61
2017-01-07T03:16:46.807Z,44.61
2017-01-07T03:17:56.315Z,45
2017-01-07T03:19:05.430Z,44.8
2017-01-07T03:20:14.550Z,44.9
2017-01-07T03:21:23.651Z,44.9
2017-01-07T03:22:32.739Z,45
2017-01-07T03:23:41.475Z,44.9
2017-01-07T03:24:50.552Z,44.7
2017-01-07T03:25:59.236Z,44.8
2017-01-07T03:27:08.356Z,45
2017-01-07T03:28:17.475Z,45.37
2017-01-07T03:29:26.560Z,44.9
2017-01-07T03:30:35.638Z,45
2017-01-07T03:31:44.333Z,45.09
2017-01-07T03:32:53.411Z,45.09
2017-01-07T03:34:02.115Z,45.18
2017-01-07T03:35:10.830Z,44.8
2017-01-07T03:36:19.588Z,45.18
2017-01-07T03:37:28.274Z,45
2017-01-07T03:38:38.563Z,45.18
2017-01-07T03:39:47.243Z,45.18
2017-01-07T03:40:56.344Z,45.09
2017-01-07T03:42:05.082Z,45.28
2017-01-07T03:43:14.556Z,45.67
2017-01-07T03:44:23.635Z,45.67
2017-01-07T03:45:32.344Z,45.67
2017-01-07T03:46:41.460Z,45.67
2017-01-07T03:47:50.544Z,45.67
2017-01-07T03:48:59.266Z,45.57
2017-01-07T03:50:08.003Z,45.47
2017-01-07T03:51:17.114Z,45.57
2017-01-07T03:52:26.277Z,45.67
2017-01-07T03:53:34.986Z,45.67
2017-01-07T03:54:43.699Z,45.67
2017-01-07T03:55:52.831Z,45.57
2017-01-07T03:57:02.700Z,45.18
2017-01-07T03:58:11.418Z,45.47
2017-01-07T03:59:20.127Z,45.18
2017-01-07T04:00:29.252Z,45.37
2017-01-07T04:01:38.733Z,45.18
2017-01-07T04:02:47.855Z,45.37
2017-01-07T04:03:56.948Z,45.37
2017-01-07T04:05:06.454Z,45.28
2017-01-07T04:06:16.349Z,45.37
2017-01-07T04:07:25.439Z,45.37
2017-01-07T04:08:34.557Z,45.28
2017-01-07T04:09:44.037Z,45.28
2017-01-07T04:10:52.741Z,45.57
2017-01-07T04:12:01.453Z,45.86
2017-01-07T04:13:10.577Z,45.86
2017-01-07T04:14:20.062Z,45.67
2017-01-07T04:15:28.762Z,45.76
2017-01-07T04:16:37.841Z,45.76
2017-01-07T04:17:47.337Z,45.86
2017-01-07T04:18:56.028Z,45.67
2017-01-07T04:20:05.535Z,45.67
2017-01-07T04:21:14.233Z,45.76
2017-01-07T04:22:24.105Z,45.37
2017-01-07T04:23:32.826Z,45.37
2017-01-07T04:24:41.906Z,45.57
2017-01-07T04:25:51.022Z,45.37
2017-01-07T04:27:00.115Z,45.76
2017-01-07T04:28:09.219Z,45.57
2017-01-07T04:29:18.712Z,45.47
2017-01-07T04:30:27.418Z,45.86
2017-01-07T04:31:36.512Z,45.76
2017-01-07T04:32:46.396Z,45.76
2017-01-07T04:33:56.307Z,45.76
2017-01-07T04:35:05.436Z,45.95
2017-01-07T04:36:14.559Z,45.95
2017-01-07T04:37:23.700Z,45.86
2017-01-07T04:38:33.174Z,46.34
2017-01-07T04:39:41.885Z,46.34
2017-01-07T04:40:50.586Z,45.95
2017-01-07T04:41:59.682Z,46.05
2017-01-07T04:43:08.385Z,46.34
2017-01-07T04:44:17.072Z,46.24
2017-01-07T04:45:26.193Z,46.24
2017-01-07T04:46:36.460Z,46.14
2017-01-07T04:47:45.957Z,45.93
2017-01-07T04:48:55.033Z,45.95
2017-01-07T04:50:04.524Z,46.24
2017-01-07T04:51:13.214Z,46.05
2017-01-07T04:52:22.283Z,45.95
2017-01-07T04:53:31.005Z,45.95
2017-01-07T04:54:40.497Z,46.34
2017-01-07T04:55:49.587Z,46.14
2017-01-07T04:56:58.314Z,46.14
2017-01-07T04:58:07.435Z,46.12
2017-01-07T04:59:16.164Z,46.31
2017-01-07T05:00:25.273Z,46.31
2017-01-07T05:01:35.124Z,46.31
2017-01-07T05:02:43.826Z,46.12
2017-01-07T05:03:52.923Z,46.24
2017-01-07T05:05:02.017Z,46.12
2017-01-07T05:06:11.495Z,46.24
2017-01-07T05:07:20.583Z,46.12
2017-01-07T05:08:29.687Z,46.03
2017-01-07T05:09:38.395Z,46.41
2017-01-07T05:10:47.115Z,46.41
2017-01-07T05:11:56.594Z,46.22
2017-01-07T05:13:06.096Z,46.31
2017-01-07T05:14:15.175Z,46.41
2017-01-07T05:15:24.286Z,46.31
2017-01-07T05:16:33.399Z,46.22
2017-01-07T05:17:42.507Z,46.31
2017-01-07T05:18:51.612Z,46.31
2017-01-07T05:20:00.319Z,46.6
2017-01-07T05:21:09.043Z,46.53
2017-01-07T05:22:18.173Z,46.5
2017-01-07T05:23:27.257Z,46.5
2017-01-07T05:24:35.971Z,46.53
2017-01-07T05:25:45.049Z,46.31
2017-01-07T05:26:53.754Z,46.5
2017-01-07T05:28:02.807Z,46.41
2017-01-07T05:29:11.882Z,46.12
2017-01-07T05:30:21.737Z,46.12
2017-01-07T05:31:30.422Z,46.53
2017-01-07T05:32:39.510Z,46.6
2017-01-07T05:33:48.618Z,46.34
2017-01-07T05:34:57.720Z,46.5
2017-01-07T05:36:07.221Z,47.08
2017-01-07T05:37:16.292Z,47.17
2017-01-07T05:38:25.001Z,46.5
2017-01-07T05:39:34.085Z,47.08
2017-01-07T05:40:43.176Z,46.89
2017-01-07T05:41:51.878Z,47.17
2017-01-07T05:43:00.960Z,46.89
2017-01-07T05:44:10.036Z,46.98
2017-01-07T05:45:19.159Z,46.89
2017-01-07T05:46:28.267Z,46.98
2017-01-07T05:47:37.417Z,46.98
2017-01-07T05:48:46.094Z,46.91
2017-01-07T05:49:55.254Z,46.98
2017-01-07T05:51:04.335Z,46.98
2017-01-07T05:52:13.065Z,46.89
2017-01-07T05:53:22.151Z,46.98
2017-01-07T05:54:31.254Z,46.79
2017-01-07T05:55:39.967Z,46.98
2017-01-07T05:56:48.650Z,46.98
2017-01-07T05:57:57.373Z,46.98
2017-01-07T05:59:06.478Z,46.79
2017-01-07T06:00:15.190Z,46.89
2017-01-07T06:01:24.283Z,46.79
2017-01-07T06:02:33.373Z,46.98
2017-01-07T06:03:42.075Z,46.79
2017-01-07T06:04:50.767Z,46.98
2017-01-07T06:05:59.849Z,46.89
2017-01-07T06:07:09.723Z,46.91
2017-01-07T06:08:19.193Z,46.79
2017-01-07T06:09:28.299Z,46.7
2017-01-07T06:10:37.777Z,46.7
2017-01-07T06:11:47.260Z,46.7
2017-01-07T06:12:56.349Z,46.7
2017-01-07T06:14:05.068Z,46.81
2017-01-07T06:15:14.162Z,46.79
2017-01-07T06:16:23.268Z,46.89
2017-01-07T06:17:31.983Z,46.79
2017-01-07T06:18:41.133Z,46.98
2017-01-07T06:19:50.226Z,46.79
2017-01-07T06:20:58.959Z,46.89
2017-01-07T06:22:07.659Z,46.98
2017-01-07T06:23:16.760Z,47.08
2017-01-07T06:24:26.244Z,46.98
2017-01-07T06:25:35.345Z,46.89
2017-01-07T06:26:44.833Z,47.08
2017-01-07T06:27:53.577Z,47.08
2017-01-07T06:29:03.074Z,46.98
2017-01-07T06:30:12.563Z,46.98
2017-01-07T06:31:22.044Z,46.98
2017-01-07T06:32:31.519Z,47.17
2017-01-07T06:33:40.204Z,46.98
2017-01-07T06:34:49.307Z,46.98
2017-01-07T06:35:58.425Z,46.98
2017-01-07T06:37:07.309Z,46.89
2017-01-07T06:38:16.814Z,46.89
2017-01-07T06:39:25.881Z,46.89
2017-01-07T06:40:34.573Z,46.7
2017-01-07T06:41:43.277Z,47.2
2017-01-07T06:42:52.427Z,46.7
2017-01-07T06:44:02.333Z,46.7
2017-01-07T06:45:12.226Z,47.08
2017-01-07T06:46:20.935Z,46.79
2017-01-07T06:47:30.040Z,47.17
2017-01-07T06:48:39.217Z,46.79
2017-01-07T06:49:48.721Z,46.98
2017-01-07T06:50:57.430Z,47.17
2017-01-07T06:52:06.959Z,47.27
2017-01-07T06:53:16.066Z,47.27
2017-01-07T06:54:24.760Z,46.91
2017-01-07T06:55:33.835Z,47.01
2017-01-07T06:56:42.927Z,47.08
2017-01-07T06:57:52.408Z,47.08
2017-01-07T06:59:02.272Z,46.98
2017-01-07T07:00:11.407Z,46.89
2017-01-07T07:01:20.486Z,46.89
2017-01-07T07:02:29.645Z,47.17
2017-01-07T07:03:38.340Z,47.17
2017-01-07T07:04:47.054Z,47.08
2017-01-07T07:05:55.789Z,47.17
2017-01-07T07:07:04.918Z,47.37
2017-01-07T07:08:14.017Z,47.08
2017-01-07T07:09:23.119Z,47.17
2017-01-07T07:10:31.831Z,47.17
2017-01-07T07:11:40.913Z,46.89
2017-01-07T07:12:50.001Z,47.08
2017-01-07T07:13:59.112Z,47.08
2017-01-07T07:15:08.626Z,47.08
2017-01-07T07:16:17.710Z,47.08
2017-01-07T07:17:27.188Z,46.89
2017-01-07T07:18:36.309Z,47.46
2017-01-07T07:19:45.847Z,47.37
2017-01-07T07:20:55.758Z,47.46
2017-01-07T07:22:04.464Z,47.3
2017-01-07T07:23:13.942Z,47.37
2017-01-07T07:24:23.417Z,47.37
2017-01-07T07:25:32.138Z,47.37
2017-01-07T07:26:41.676Z,47.37
2017-01-07T07:27:50.817Z,47.37
2017-01-07T07:28:59.910Z,47.27
2017-01-07T07:30:08.634Z,47.46
2017-01-07T07:31:17.738Z,47.27
2017-01-07T07:32:27.223Z,47.46
2017-01-07T07:33:36.311Z,47.56
2017-01-07T07:34:45.425Z,47.46
2017-01-07T07:35:54.558Z,47.27
2017-01-07T07:37:03.278Z,47.56
2017-01-07T07:38:12.742Z,47.46
2017-01-07T07:39:21.447Z,47.27
2017-01-07T07:40:30.690Z,47.27
2017-01-07T07:41:39.377Z,47.27
2017-01-07T07:42:48.459Z,47.46
2017-01-07T07:43:57.554Z,47.46
2017-01-07T07:45:06.651Z,47.66
2017-01-07T07:46:15.742Z,47.46
2017-01-07T07:47:24.420Z,47.46
2017-01-07T07:48:33.514Z,47.46
2017-01-07T07:49:42.609Z,47.56
2017-01-07T07:50:51.700Z,47.56
2017-01-07T07:52:00.796Z,47.56
2017-01-07T07:53:09.872Z,47.56
2017-01-07T07:54:18.965Z,48.04
2017-01-07T07:55:27.679Z,47.46
2017-01-07T07:56:36.373Z,48.13
2017-01-07T07:57:45.132Z,48.04
2017-01-07T07:58:54.242Z,47.85
2017-01-07T08:00:03.733Z,47.75
2017-01-07T08:01:13.650Z,47.94
2017-01-07T08:02:41.571Z,47.94
2017-01-07T08:03:51.059Z,47.85
2017-01-07T08:05:00.215Z,47.94
2017-01-07T08:06:09.342Z,48.13
2017-01-07T08:07:18.436Z,47.94
2017-01-07T08:08:27.939Z,48.13
2017-01-07T08:09:37.421Z,47.66
2017-01-07T08:10:46.893Z,47.85
2017-01-07T08:11:55.976Z,47.85
2017-01-07T08:13:04.670Z,47.75
2017-01-07T08:14:13.800Z,47.66
2017-01-07T08:15:22.888Z,48.04
2017-01-07T08:16:31.595Z,47.85
2017-01-07T08:17:41.498Z,48.04
2017-01-07T08:18:50.966Z,47.85
2017-01-07T08:20:00.070Z,47.56
2017-01-07T08:21:09.167Z,47.27
2017-01-07T08:22:18.251Z,47.56
2017-01-07T08:23:26.986Z,47.01
2017-01-07T08:24:36.077Z,47.2
2017-01-07T08:25:46.333Z,46.72
2017-01-07T08:26:56.181Z,47.1
2017-01-07T08:28:04.915Z,47.01
2017-01-07T08:29:13.990Z,47.2
2017-01-07T08:30:22.724Z,46.43
2017-01-07T08:31:32.606Z,46.34
2017-01-07T08:32:41.749Z,46.45
2017-01-07T08:33:51.605Z,46.17
2017-01-07T08:35:00.299Z,46.17
2017-01-07T08:36:09.018Z,45.59
2017-01-07T08:37:18.183Z,45.78
2017-01-07T08:38:26.898Z,45.61
2017-01-07T08:39:36.025Z,45.32
2017-01-07T08:40:45.137Z,45.52
2017-01-07T08:41:54.255Z,45.71
2017-01-07T08:43:03.430Z,45.42
2017-01-07T08:44:12.148Z,45.14
2017-01-07T08:45:20.873Z,45.14
2017-01-07T08:46:29.961Z,45.14
2017-01-07T08:47:38.682Z,45.15
2017-01-07T08:48:47.772Z,44.87
2017-01-07T08:49:57.264Z,44.87
2017-01-07T08:51:06.744Z,44.48
2017-01-07T08:52:15.833Z,44.58
2017-01-07T08:53:24.943Z,44.96
2017-01-07T08:54:33.655Z,44.87
2017-01-07T08:55:42.745Z,44.87
2017-01-07T08:56:51.851Z,44.29
2017-01-07T08:58:00.942Z,44.38
2017-01-07T08:59:10.423Z,44.38
2017-01-07T09:00:19.121Z,44.38
2017-01-07T09:01:28.613Z,44.51
2017-01-07T09:02:37.734Z,44.51
2017-01-07T09:03:47.590Z,44.7
2017-01-07T09:04:56.672Z,44.51
2017-01-07T09:06:05.369Z,44.51
2017-01-07T09:07:14.118Z,44.22
2017-01-07T09:08:22.856Z,44.02
2017-01-07T09:09:31.607Z,44.12
2017-01-07T09:10:40.716Z,44.02
2017-01-07T09:11:49.798Z,44.02
2017-01-07T09:12:58.926Z,44.05
2017-01-07T09:14:08.004Z,44.31
2017-01-07T09:15:17.103Z,43.85
2017-01-07T09:16:26.624Z,44.05
2017-01-07T09:17:35.731Z,44.24
2017-01-07T09:18:45.629Z,44.24
2017-01-07T09:19:54.739Z,43.85
2017-01-07T09:21:03.819Z,44.24
2017-01-07T09:22:12.911Z,44.05
2017-01-07T09:23:22.443Z,44.24
2017-01-07T09:24:31.598Z,44.24
2017-01-07T09:25:40.695Z,44.24
2017-01-07T09:26:50.174Z,43.85
2017-01-07T09:27:59.745Z,44.34
2017-01-07T09:29:08.870Z,44.05
2017-01-07T09:30:17.607Z,44.05
2017-01-07T09:31:26.325Z,44.05
2017-01-07T09:32:35.890Z,43.59
2017-01-07T09:33:44.984Z,43.78
2017-01-07T09:34:54.516Z,43.97
2017-01-07T09:36:03.620Z,43.4
2017-01-07T09:37:12.326Z,43.59
2017-01-07T09:38:21.824Z,43.49
2017-01-07T09:39:30.967Z,43.59
2017-01-07T09:40:39.696Z,43.61
2017-01-07T09:41:49.618Z,43.71
2017-01-07T09:42:58.711Z,43.8
2017-01-07T09:44:07.823Z,43.61
2017-01-07T09:45:16.928Z,43.32
2017-01-07T09:46:27.188Z,42.93
2017-01-07T09:47:35.925Z,43.13
2017-01-07T09:48:45.038Z,43.23
2017-01-07T09:49:54.138Z,42.93
2017-01-07T09:51:04.033Z,42.93
2017-01-07T09:52:12.782Z,42.84
2017-01-07T09:53:21.881Z,42.86
2017-01-07T09:54:30.621Z,42.96
2017-01-07T09:55:40.492Z,42.86
2017-01-07T09:56:49.262Z,42.96
2017-01-07T09:57:58.432Z,42.86
2017-01-07T09:59:07.138Z,42.86
2017-01-07T10:00:15.861Z,42.86
2017-01-07T10:01:25.361Z,42.67
2017-01-07T10:02:34.507Z,42.76
2017-01-07T10:03:43.681Z,42.86
2017-01-07T10:04:52.859Z,42.76
2017-01-07T10:06:02.348Z,42.76
2017-01-07T10:07:11.117Z,42.86
2017-01-07T10:08:20.240Z,42.96
2017-01-07T10:09:28.984Z,42.86
2017-01-07T10:10:38.921Z,43.15
2017-01-07T10:11:47.630Z,43.44
2017-01-07T10:12:56.750Z,43.63
2017-01-07T10:14:05.837Z,43.63
2017-01-07T10:15:15.328Z,44.02
2017-01-07T10:16:24.438Z,43.99
2017-01-07T10:17:34.631Z,44.96
2017-01-07T10:18:43.446Z,45.9
2017-01-07T10:19:53.528Z,46.64
2017-01-07T10:21:03.091Z,47.58
2017-01-07T10:22:12.568Z,48.52
2017-01-07T10:23:21.255Z,49.07
2017-01-07T10:24:30.722Z,50.01
2017-01-07T10:25:39.416Z,50.56
2017-01-07T10:26:48.105Z,50.63
2017-01-07T10:27:57.207Z,51.49
2017-01-07T10:29:06.309Z,52.23
2017-01-07T10:30:14.991Z,52.69
2017-01-07T10:31:24.252Z,53.16
2017-01-07T10:32:33.719Z,53.71
2017-01-07T10:33:43.589Z,54
2017-01-07T10:34:53.064Z,54.55
2017-01-07T10:36:02.583Z,54.61
2017-01-07T10:37:11.293Z,55
2017-01-07T10:38:20.427Z,55.19
2017-01-07T10:39:29.533Z,55.83
2017-01-07T10:40:39.025Z,55.64
2017-01-07T10:41:47.722Z,55.93
2017-01-07T10:42:56.800Z,56.18
2017-01-07T10:44:05.494Z,56.18
2017-01-07T10:45:14.211Z,55.61
2017-01-07T10:46:23.703Z,55.8
2017-01-07T10:47:32.785Z,55.07
2017-01-07T10:48:41.477Z,54.49
2017-01-07T10:49:50.167Z,53.73
2017-01-07T10:50:58.853Z,53.66
2017-01-07T10:52:07.948Z,52.89
2017-01-07T10:53:17.417Z,52.22
2017-01-07T10:54:26.916Z,51.58
2017-01-07T10:55:36.393Z,51.01
2017-01-07T10:56:45.505Z,50.56
2017-01-07T10:57:54.997Z,50.07
2017-01-07T10:59:05.270Z,49.4
2017-01-07T11:00:14.358Z,49.43
2017-01-07T11:01:23.071Z,48.66
2017-01-07T11:02:31.789Z,48.28
2017-01-07T11:03:41.260Z,48.4
2017-01-07T11:04:50.758Z,48.3
2017-01-07T11:05:59.839Z,47.82
2017-01-07T11:07:08.922Z,47.37
2017-01-07T11:08:18.411Z,46.77
2017-01-07T11:09:27.877Z,46.98
2017-01-07T11:10:36.948Z,46.5
2017-01-07T11:11:46.808Z,46.22
2017-01-07T11:12:55.926Z,45.95
2017-01-07T11:14:04.612Z,45.86
2017-01-07T11:15:14.093Z,45.76
2017-01-07T11:16:23.214Z,45.47
2017-01-07T11:17:31.923Z,45.67
2017-01-07T11:18:41.408Z,45.76
2017-01-07T11:19:50.115Z,45.37
2017-01-07T11:20:58.811Z,44.82
2017-01-07T11:22:08.316Z,44.63
2017-01-07T11:23:17.806Z,44.73
2017-01-07T11:24:26.895Z,44.44
2017-01-07T11:25:35.969Z,44.63
2017-01-07T11:26:45.058Z,44.27
2017-01-07T11:27:54.163Z,44.08
2017-01-07T11:29:02.853Z,43.88
2017-01-07T11:30:12.349Z,44.17
2017-01-07T11:31:21.857Z,43.88
2017-01-07T11:32:30.954Z,43.98
2017-01-07T11:33:40.051Z,43.79
2017-01-07T11:34:48.757Z,43.79
2017-01-07T11:35:57.861Z,43.7
2017-01-07T11:37:06.585Z,43.33
2017-01-07T11:38:15.676Z,43.33
2017-01-07T11:39:24.411Z,43.33
2017-01-07T11:40:33.522Z,43.52
2017-01-07T11:41:43.008Z,43.52
2017-01-07T11:42:52.477Z,43.33
2017-01-07T11:44:01.608Z,42.76
2017-01-07T11:45:10.729Z,42.66
2017-01-07T11:46:20.230Z,42.85
2017-01-07T11:47:28.969Z,42.94
2017-01-07T11:48:39.313Z,42.85
2017-01-07T11:49:48.016Z,42.56
2017-01-07T11:50:56.766Z,42.94
2017-01-07T11:52:05.913Z,42.97
2017-01-07T11:53:15.401Z,42.66
2017-01-07T11:54:24.528Z,42.77
2017-01-07T11:55:33.237Z,42.58
2017-01-07T11:56:41.933Z,42.77
2017-01-07T11:57:51.028Z,42.77
2017-01-07T11:59:00.524Z,42.58
2017-01-07T12:00:09.632Z,42.68
2017-01-07T12:01:18.343Z,42.58
2017-01-07T12:02:27.444Z,42.49
2017-01-07T12:03:36.162Z,42.58
2017-01-07T12:04:45.246Z,42.49
2017-01-07T12:05:54.415Z,42.3
2017-01-07T12:07:03.581Z,42.1
2017-01-07T12:08:12.382Z,42.39
2017-01-07T12:09:21.487Z,42.39
2017-01-07T12:10:30.749Z,42.3
2017-01-07T12:11:39.713Z,42.1
2017-01-07T12:12:48.458Z,42.39
2017-01-07T12:13:57.625Z,42.2
2017-01-07T12:15:06.721Z,42.1
2017-01-07T12:16:15.854Z,42.22
2017-01-07T12:17:25.313Z,42.39
2017-01-07T12:18:34.814Z,42.2
2017-01-07T12:19:43.953Z,42.22
2017-01-07T12:20:53.437Z,42.03
2017-01-07T12:22:02.124Z,42.32
2017-01-07T12:23:11.602Z,42.39
2017-01-07T12:24:20.343Z,42
2017-01-07T12:25:29.062Z,42.12
2017-01-07T12:26:37.770Z,42.3
2017-01-07T12:27:47.666Z,42.49
2017-01-07T12:28:56.369Z,42.39
2017-01-07T12:30:05.096Z,42.6
2017-01-07T12:31:14.189Z,42.39
2017-01-07T12:32:23.668Z,42.39
2017-01-07T12:33:33.220Z,42.32
2017-01-07T12:34:42.699Z,42.39
2017-01-07T12:35:51.393Z,42.49
2017-01-07T12:37:00.092Z,42.39
2017-01-07T12:38:08.812Z,42.5
2017-01-07T12:39:17.889Z,42.6
2017-01-07T12:40:27.379Z,42.5
2017-01-07T12:41:36.512Z,42.7
2017-01-07T12:42:46.005Z,42.68
2017-01-07T12:43:55.098Z,42.68
2017-01-07T12:45:04.215Z,42.58
2017-01-07T12:46:13.697Z,42.97
2017-01-07T12:47:23.200Z,42.87
2017-01-07T12:48:32.288Z,42.7
2017-01-07T12:49:41.377Z,42.8
2017-01-07T12:50:50.487Z,42.87
2017-01-07T12:51:59.630Z,42.97
2017-01-07T12:53:08.766Z,42.89
2017-01-07T12:54:17.854Z,42.68
2017-01-07T12:55:26.546Z,42.87
2017-01-07T12:56:35.237Z,43.16
2017-01-07T12:57:43.984Z,43.07
2017-01-07T12:58:52.713Z,43.26
2017-01-07T13:00:01.399Z,43.26
2017-01-07T13:01:11.315Z,43.64
2017-01-07T13:02:20.872Z,43.54
2017-01-07T13:03:29.998Z,43.54
2017-01-07T13:04:38.716Z,43.64
2017-01-07T13:05:47.813Z,43.64
2017-01-07T13:06:57.713Z,43.54
2017-01-07T13:08:06.431Z,43.54
2017-01-07T13:09:15.551Z,43.54
2017-01-07T13:10:24.703Z,43.54
2017-01-07T13:11:33.441Z,43.54
2017-01-07T13:12:42.167Z,43.54
2017-01-07T13:13:51.677Z,43.45
2017-01-07T13:15:00.406Z,43.54
2017-01-07T13:16:09.916Z,43.35
2017-01-07T13:17:19.780Z,43.47
2017-01-07T13:18:29.678Z,43.57
2017-01-07T13:19:39.147Z,43.37
2017-01-07T13:20:47.857Z,43.37
2017-01-07T13:21:56.949Z,43.57
2017-01-07T13:23:06.029Z,43.54
2017-01-07T13:24:14.773Z,43.54
2017-01-07T13:25:24.550Z,43.57
2017-01-07T13:26:33.673Z,43.57
2017-01-07T13:27:43.135Z,43.54
2017-01-07T13:28:52.207Z,43.35
2017-01-07T13:30:01.313Z,43.47
2017-01-07T13:31:10.391Z,43.45
2017-01-07T13:32:19.092Z,43.35
2017-01-07T13:33:27.787Z,43.35
2017-01-07T13:34:36.900Z,43.74
2017-01-07T13:35:46.414Z,43.74
2017-01-07T13:36:55.141Z,43.93
2017-01-07T13:38:03.826Z,43.93
2017-01-07T13:39:12.522Z,43.93
2017-01-07T13:40:21.612Z,43.93
2017-01-07T13:41:30.693Z,44.02
2017-01-07T13:42:39.434Z,43.74
2017-01-07T13:43:48.914Z,43.74
2017-01-07T13:44:57.624Z,43.74
2017-01-07T13:46:07.131Z,43.74
2017-01-07T13:47:16.219Z,43.57
2017-01-07T13:48:24.915Z,43.93
2017-01-07T13:49:34.853Z,44.22
2017-01-07T13:50:43.936Z,44.02
2017-01-07T13:51:52.641Z,44.02
2017-01-07T13:53:01.352Z,43.93
2017-01-07T13:54:10.841Z,43.84
2017-01-07T13:55:19.541Z,43.84
2017-01-07T13:56:28.327Z,44.02
2017-01-07T13:57:37.487Z,44.22
2017-01-07T13:58:46.579Z,43.93
2017-01-07T13:59:55.685Z,44.22
2017-01-07T14:01:04.480Z,43.93
2017-01-07T14:02:14.383Z,44.12
2017-01-07T14:03:23.477Z,43.93
2017-01-07T14:04:32.171Z,44.41
2017-01-07T14:05:41.261Z,43.93
2017-01-07T14:06:50.740Z,44.12
2017-01-07T14:08:00.218Z,44.02
2017-01-07T14:09:09.704Z,44.22
2017-01-07T14:10:18.424Z,44.12
2017-01-07T14:11:28.286Z,44.12
2017-01-07T14:12:37.760Z,44.12
2017-01-07T14:13:46.464Z,44.12
2017-01-07T14:14:55.188Z,44.12
2017-01-07T14:16:05.066Z,44.22
2017-01-07T14:17:13.761Z,44.22
2017-01-07T14:18:22.848Z,44.22
2017-01-07T14:19:31.547Z,44.31
2017-01-07T14:20:40.663Z,44.31
2017-01-07T14:21:50.190Z,44.02
2017-01-07T14:22:59.673Z,44.22
2017-01-07T14:24:08.779Z,44.02
2017-01-07T14:25:17.866Z,44.02
2017-01-07T14:26:26.561Z,44.02
2017-01-07T14:27:35.267Z,44.02
2017-01-07T14:28:44.370Z,44.02
2017-01-07T14:29:53.453Z,44.12
2017-01-07T14:31:02.943Z,44.12
2017-01-07T14:32:11.672Z,44.41
2017-01-07T14:33:21.137Z,44.31
2017-01-07T14:34:30.286Z,44.51
2017-01-07T14:35:39.370Z,44.41
2017-01-07T14:36:48.082Z,44.51
2017-01-07T14:37:56.794Z,44.79
2017-01-07T14:39:05.530Z,44.7
2017-01-07T14:40:14.220Z,44.89
2017-01-07T14:41:22.954Z,44.89
2017-01-07T14:42:32.069Z,44.7
2017-01-07T14:43:41.155Z,44.6
2017-01-07T14:44:50.264Z,44.51
2017-01-07T14:45:58.986Z,44.51
2017-01-07T14:47:08.477Z,44.51
2017-01-07T14:48:17.582Z,44.31
2017-01-07T14:49:26.310Z,44.51
2017-01-07T14:50:35.826Z,44.89
2017-01-07T14:51:44.956Z,45.47
2017-01-07T14:52:53.669Z,46.89
2017-01-07T14:54:03.580Z,48.57